Guapiles Airport


Codes: MRGP/GPL
Name: Guapiles Airport
City: Pococi
Country: Costa Rica
Elevation: 883 ft.
Wikipedia:

Photos at Guapiles Airport


   Photos courtesy of SpottingLog. You can add your own sightings and photos by signing up for a free trial today.



No photos found.

Weather at Guapiles Airport


Time (UTC)DescriptionTempratureWindCloud coverageVisibilityPressureHumidity
26-Jun-2024 00:00Moderate Rain26°C0 mph, SW97%10000m1012hPa96%
26-Jun-2024 03:00Light Rain25°C2 mph, SW98%10000m1013hPa96%
26-Jun-2024 06:00Light Rain24°C4 mph, SW99%10000m1013hPa96%
26-Jun-2024 09:00Overcast Clouds23°C4 mph, SW96%10000m1011hPa95%
26-Jun-2024 12:00Broken Clouds23°C4 mph, SW75%10000m1013hPa93%
26-Jun-2024 15:00Overcast Clouds29°C4 mph, N99%10000m1013hPa68%
26-Jun-2024 18:00Light Rain30°C4 mph, N100%10000m1011hPa64%
26-Jun-2024 21:00Moderate Rain27°C2 mph, N100%10000m1010hPa90%
27-Jun-2024 00:00Light Rain24°C2 mph, S100%10000m1011hPa96%
27-Jun-2024 03:00Light Rain23°C2 mph, S80%10000m1012hPa97%
27-Jun-2024 06:00Light Rain23°C4 mph, SW82%10000m1011hPa96%
27-Jun-2024 09:00Light Rain22°C4 mph, SW100%10000m1010hPa95%
27-Jun-2024 12:00Light Rain23°C2 mph, SW99%10000m1011hPa94%
27-Jun-2024 15:00Light Rain27°C2 mph, NW100%10000m1011hPa80%
27-Jun-2024 18:00Light Rain27°C2 mph, N100%10000m1010hPa77%
27-Jun-2024 21:00Moderate Rain26°C0 mph, W93%10000m1009hPa92%
28-Jun-2024 00:00Light Rain23°C2 mph, S97%10000m1011hPa95%
28-Jun-2024 03:00Light Rain22°C4 mph, S100%10000m1012hPa94%
28-Jun-2024 06:00Overcast Clouds22°C2 mph, S100%10000m1011hPa93%
28-Jun-2024 09:00Overcast Clouds22°C2 mph, S100%10000m1010hPa93%
28-Jun-2024 12:00Overcast Clouds23°C2 mph, SW100%10000m1012hPa91%
28-Jun-2024 15:00Overcast Clouds25°C0 mph, NE99%10000m1013hPa86%
28-Jun-2024 18:00Light Rain27°C4 mph, NE99%10000m1011hPa71%
28-Jun-2024 21:00Light Rain26°C2 mph, NE100%10000m1010hPa79%
29-Jun-2024 00:00Light Rain24°C2 mph, S100%10000m1011hPa88%
29-Jun-2024 03:00Light Rain24°C2 mph, S100%10000m1014hPa86%
29-Jun-2024 06:00Light Rain23°C2 mph, SW100%10000m1013hPa85%
29-Jun-2024 09:00Light Rain23°C2 mph, SW100%10000m1013hPa86%
29-Jun-2024 12:00Light Rain23°C2 mph, SW99%10000m1013hPa87%
29-Jun-2024 15:00Light Rain28°C2 mph, N85%10000m1014hPa72%
29-Jun-2024 18:00Light Rain25°C0 mph, NW93%10000m1014hPa92%
29-Jun-2024 21:00Light Rain25°C0 mph, NE100%10000m1012hPa91%
30-Jun-2024 00:00Light Rain23°C2 mph, SW91%10000m1013hPa96%
30-Jun-2024 03:00Overcast Clouds23°C2 mph, SW99%10000m1015hPa94%
30-Jun-2024 06:00Overcast Clouds23°C2 mph, SW99%10000m1014hPa94%
30-Jun-2024 09:00Overcast Clouds22°C2 mph, SW94%10000m1013hPa94%
30-Jun-2024 12:00Overcast Clouds23°C2 mph, SW97%10000m1014hPa92%
30-Jun-2024 15:00Overcast Clouds27°C2 mph, NE99%10000m1014hPa72%
30-Jun-2024 18:00Overcast Clouds28°C4 mph, N100%10000m1013hPa71%
30-Jun-2024 21:00Light Rain28°C2 mph, NE100%10000m1011hPa67%